< < Back
Terminal Aerodrome Forecast


Current Version              Previous Versions:   1  2  3  4  5  6  7  8  9  

Terminal Aerodrome Forecast

886
FTUS42 KTAE 011700
TAFDHN
TAF
KDHN 011740Z 0118/0218 11007KT P6SM SCT050
     FM020200 00000KT P6SM SKC
     FM021500 35005KT P6SM FEW040=



Latest METAR

684
SAUS70 KWBC 020900 RRD
MTRDHN
METAR KDHN 020853Z AUTO 35004KT 10SM CLR 23/22 A3008 RMK AO2 SLP180
T02330217 55010


USA.gov is the U.S. government's official web portal to all federal, state and local government web resources and services.